Time;durP1;ratioP1;P1;durP2;ratioP2;P2;SDS_P1;SDS_P2;PMS_P1;PMS_P2;Temp;Humidity;BMP_temperature;BMP_pressure;BME280_temperature;BME280_humidity;BME280_pressure;Samples;Min_cycle;Max_cycle;Signal;HPM_P1;HPM_P2
2023/06/12 04:42:16;;;;;;;;;;;;;;;22.42;54.47;96571.69;4223141;27;10524;-62
2023/06/12 04:44:21;;;;;;;;;;;;;;;22.71;53.71;96574.56;4212626;28;5806;-62
2023/06/12 04:46:24;;;;;;;;;;;;;;;22.98;53.37;96568.81;4225480;28;5672;-62
2023/06/12 04:48:27;;;;;;;;;;;;;;;23.15;53.00;96572.78;4214724;28;6924;-63
2023/06/12 04:50:31;;;;;;;;;;;;;;;23.30;52.62;96574.56;4213960;28;5694;-62
2023/06/12 04:52:34;;;;;;;;;;;;;;;23.42;52.46;96568.81;4214737;28;6365;-62
2023/06/12 04:54:41;;;;;;;;;;;;;;;23.50;52.37;96571.75;4214605;28;5687;-62
2023/06/12 04:56:44;;;;;;;;;;;;;;;23.57;52.26;96573.31;4213847;28;5702;-62
2023/06/12 04:58:49;;;;;;;;;;;;;;;23.65;52.34;96573.53;4211535;28;5693;-62
2023/06/12 05:00:55;;;;;;;;;;;;;;;23.71;52.03;96572.44;4211774;28;5769;-62
2023/06/12 05:03:00;;;;;;;;;;;;;;;23.75;52.18;96583.44;4210840;28;5773;-62
2023/06/12 05:05:03;;;;;;;;;;;;;;;23.77;52.01;96570.47;4209752;28;6489;-62
2023/06/12 05:07:14;;;;;;;;;;;;;;;23.80;51.81;96570.75;4213441;28;5691;-62
2023/06/12 05:09:17;;;;;;;;;;;;;;;23.85;51.79;96577.97;4207123;28;5715;-63
2023/06/12 05:11:19;;;;;;;;;;;;;;;23.86;51.58;96565.28;4214063;28;5694;-62
2023/06/12 05:13:22;;;;;;;;;;;;;;;23.80;51.78;96569.94;4214341;28;6388;-62
2023/06/12 05:15:27;;;;;;;;;;;;;;;23.83;51.58;96574.75;4201974;28;5817;-61
2023/06/12 05:17:33;;;;;;;;;;;;;;;23.90;51.89;96574.41;4209092;28;5698;-61
2023/06/12 05:19:38;;;;;;;;;;;;;;;23.97;51.85;96569.50;4209997;28;5854;-61
2023/06/12 05:21:41;;;;;;;;;;;;;;;24.00;51.52;96582.44;4206249;28;5886;-61
2023/06/12 05:23:44;;;;;;;;;;;;;;;24.03;51.19;96585.38;4208603;28;5691;-62
2023/06/12 05:25:47;;;;;;;;;;;;;;;24.04;51.46;96580.78;4212132;28;5690;-61
2023/06/12 05:27:49;;;;;;;;;;;;;;;24.11;51.26;96579.34;4212574;28;5990;-61
2023/06/12 05:29:52;;;;;;;;;;;;;;;24.21;51.37;96575.75;4212933;28;5690;-61
2023/06/12 05:31:56;;;;;;;;;;;;;;;24.27;51.19;96569.22;4208125;28;5788;-61
2023/06/12 05:33:59;;;;;;;;;;;;;;;24.41;50.75;96576.66;4212992;28;5812;-61
2023/06/12 05:36:02;;;;;;;;;;;;;;;24.51;50.55;96573.88;4213178;28;5682;-61
2023/06/12 05:38:06;;;;;;;;;;;;;;;24.59;50.70;96576.75;4206950;28;5697;-61
2023/06/12 05:40:10;;;;;;;;;;;;;;;24.68;50.58;96574.19;4204660;28;5723;-62
2023/06/12 05:42:13;;;;;;;;;;;;;;;24.75;50.35;96574.66;4199841;28;5695;-66
2023/06/12 05:44:16;;;;;;;;;;;;;;;24.83;50.31;96576.72;4202443;28;5687;-64
2023/06/12 05:46:20;;;;;;;;;;;;;;;24.88;49.83;96579.34;4202585;28;5773;-64
2023/06/12 05:48:24;;;;;;;;;;;;;;;24.92;49.81;96579.59;4202517;28;5698;-64
2023/06/12 05:50:27;;;;;;;;;;;;;;;24.98;49.47;96581.94;4202648;28;5805;-64
2023/06/12 05:52:30;;;;;;;;;;;;;;;25.06;49.54;96580.53;4202686;28;5686;-65
2023/06/12 05:54:33;;;;;;;;;;;;;;;25.10;49.42;96581.53;4202726;28;5694;-65
2023/06/12 05:56:36;;;;;;;;;;;;;;;25.14;49.41;96579.03;4202903;28;5788;-64
2023/06/12 05:58:39;;;;;;;;;;;;;;;25.18;49.28;96582.78;4202601;28;5757;-64
2023/06/12 06:00:43;;;;;;;;;;;;;;;25.22;49.13;96586.53;4197200;28;5700;-64
2023/06/12 06:02:46;;;;;;;;;;;;;;;25.26;48.77;96584.84;4196644;28;6384;-64
2023/06/12 06:04:53;;;;;;;;;;;;;;;25.29;49.21;96578.06;4196453;28;5822;-64
2023/06/12 06:06:56;;;;;;;;;;;;;;;25.36;48.80;96583.88;4201992;28;5773;-63
2023/06/12 06:09:04;;;;;;;;;;;;;;;25.40;48.60;96576.81;4202471;28;6443;-64
2023/06/12 06:11:07;;;;;;;;;;;;;;;25.42;48.51;96583.53;4202117;28;5705;-64
2023/06/12 06:13:12;;;;;;;;;;;;;;;25.44;48.87;96581.31;4199381;28;5095;-64
2023/06/12 06:15:15;;;;;;;;;;;;;;;25.52;48.75;96580.69;4201814;28;6400;-64
2023/06/12 06:17:19;;;;;;;;;;;;;;;25.60;48.73;96583.81;4200743;28;5639;-64
2023/06/12 06:19:23;;;;;;;;;;;;;;;25.66;48.54;96582.63;4202468;28;5689;-64
2023/06/12 06:21:27;;;;;;;;;;;;;;;25.71;48.20;96588.81;4187809;28;5704;-64
2023/06/12 06:23:30;;;;;;;;;;;;;;;25.75;48.30;96586.31;4188231;28;6169;-65
2023/06/12 06:25:33;;;;;;;;;;;;;;;25.79;48.26;96579.19;4193734;28;5860;-65
2023/06/12 06:27:36;;;;;;;;;;;;;;;25.83;48.06;96591.06;4200280;28;5739;-65
2023/06/12 06:29:39;;;;;;;;;;;;;;;25.83;47.67;96586.44;4200166;28;5784;-65
2023/06/12 06:31:42;;;;;;;;;;;;;;;25.84;47.65;96579.13;4201615;28;5902;-65
2023/06/12 06:33:45;;;;;;;;;;;;;;;25.86;47.60;96582.34;4200437;28;5880;-65
2023/06/12 06:35:49;;;;;;;;;;;;;;;25.87;47.71;96583.94;4201871;28;5694;-65
2023/06/12 06:37:54;;;;;;;;;;;;;;;25.89;47.47;96583.66;4187245;28;5724;-65
2023/06/12 06:39:57;;;;;;;;;;;;;;;25.89;47.44;96584.44;4185199;28;5820;-65
2023/06/12 06:42:00;;;;;;;;;;;;;;;25.90;46.98;96583.34;4185341;28;5918;-65
2023/06/12 06:44:03;;;;;;;;;;;;;;;25.91;47.23;96584.94;4201624;28;5701;-64
2023/06/12 06:46:05;;;;;;;;;;;;;;;25.94;47.00;96584.38;4191554;28;5758;-65
2023/06/12 06:48:14;;;;;;;;;;;;;;;25.94;46.90;96581.69;4200205;28;5870;-65
2023/06/12 06:50:17;;;;;;;;;;;;;;;25.95;46.81;96586.00;4201781;28;5706;-65
2023/06/12 06:52:22;;;;;;;;;;;;;;;25.97;46.66;96583.78;4200998;28;5690;-65
2023/06/12 06:54:26;;;;;;;;;;;;;;;25.99;46.56;96592.41;4200780;28;5694;-65
2023/06/12 06:56:30;;;;;;;;;;;;;;;26.00;46.47;96585.09;4200433;28;5792;-64
2023/06/12 06:58:33;;;;;;;;;;;;;;;26.02;46.48;96580.97;4201721;28;5760;-65
2023/06/12 07:00:36;;;;;;;;;;;;;;;26.03;46.40;96581.78;4201460;28;5687;-65
2023/06/12 07:02:42;;;;;;;;;;;;;;;26.01;46.46;96570.44;4201282;28;5723;-65
2023/06/12 07:04:46;;;;;;;;;;;;;;;25.98;46.02;96579.97;4201550;28;5699;-64
2023/06/12 07:06:49;;;;;;;;;;;;;;;25.96;46.18;96586.78;4198894;28;5785;-75
2023/06/12 07:08:52;;;;;;;;;;;;;;;25.93;45.95;96577.34;4186673;28;5789;-75
2023/06/12 07:10:57;;;;;;;;;;;;;;;25.87;45.89;96583.94;4187028;28;5848;-76
2023/06/12 07:13:00;;;;;;;;;;;;;;;25.82;46.17;96582.13;4191935;28;5857;-75
2023/06/12 07:15:04;;;;;;;;;;;;;;;25.78;46.02;96583.00;4186361;28;5711;-76
2023/06/12 07:17:07;;;;;;;;;;;;;;;25.72;46.10;96576.88;4197996;28;5051;-75
2023/06/12 07:19:11;;;;;;;;;;;;;;;25.69;45.59;96582.88;4203066;28;5698;-75
2023/06/12 07:21:15;;;;;;;;;;;;;;;25.67;45.89;96581.53;4200526;28;5786;-75
2023/06/12 07:23:18;;;;;;;;;;;;;;;25.63;45.48;96583.22;4201455;28;6453;-76
2023/06/12 07:25:21;;;;;;;;;;;;;;;25.57;45.66;96578.97;4202397;28;5838;-75
2023/06/12 07:27:26;;;;;;;;;;;;;;;25.55;45.38;96581.97;4187241;28;5691;-76
2023/06/12 07:29:29;;;;;;;;;;;;;;;25.52;45.58;96582.56;4201556;28;5780;-76
2023/06/12 07:31:32;;;;;;;;;;;;;;;25.49;45.50;96589.38;4191349;28;5109;-75
2023/06/12 07:33:41;;;;;;;;;;;;;;;25.46;45.38;96584.53;4185991;28;5811;-76
2023/06/12 07:35:44;;;;;;;;;;;;;;;25.43;45.28;96585.13;4192327;28;5686;-75
2023/06/12 07:37:49;;;;;;;;;;;;;;;25.41;45.02;96581.91;4203914;28;5681;-76
2023/06/12 07:39:53;;;;;;;;;;;;;;;25.42;45.04;96590.84;4205379;28;5852;-76
2023/06/12 07:41:57;;;;;;;;;;;;;;;25.38;44.88;96587.94;4204693;28;5706;-76
2023/06/12 07:44:01;;;;;;;;;;;;;;;25.38;45.03;96590.63;4204629;28;5731;-76
2023/06/12 07:46:04;;;;;;;;;;;;;;;25.36;45.08;96583.88;4204683;28;5726;-76
2023/06/12 07:48:10;;;;;;;;;;;;;;;25.35;45.13;96588.50;4198032;28;5838;-75
2023/06/12 07:50:13;;;;;;;;;;;;;;;25.31;45.13;96579.38;4198448;28;5690;-76
2023/06/12 07:52:16;;;;;;;;;;;;;;;25.29;45.09;96578.84;4204935;28;5725;-76
2023/06/12 07:54:19;;;;;;;;;;;;;;;25.26;45.43;96579.44;4198252;28;5718;-76
2023/06/12 07:56:22;;;;;;;;;;;;;;;25.28;45.38;96577.25;4197093;28;5796;-76
2023/06/12 07:58:25;;;;;;;;;;;;;;;25.29;44.99;96581.56;4202057;28;6468;-75
2023/06/12 08:00:29;;;;;;;;;;;;;;;25.29;45.20;96580.75;4201917;28;5695;-76
2023/06/12 08:02:35;;;;;;;;;;;;;;;25.28;45.17;96582.66;4201308;28;6090;-76
2023/06/12 08:04:40;;;;;;;;;;;;;;;25.28;45.11;96569.13;4205082;28;5713;-75
2023/06/12 08:06:44;;;;;;;;;;;;;;;25.30;45.32;96575.03;4213901;28;5773;-76
2023/06/12 08:08:48;;;;;;;;;;;;;;;25.29;45.21;96568.03;4206342;28;5793;-75
2023/06/12 08:10:51;;;;;;;;;;;;;;;25.30;45.48;96571.53;4203978;28;5852;-74
2023/06/12 08:12:54;;;;;;;;;;;;;;;25.27;45.57;96566.72;4208028;28;5755;-75
2023/06/12 08:14:57;;;;;;;;;;;;;;;25.21;45.40;96563.28;4207335;28;5706;-74
2023/06/12 08:17:02;;;;;;;;;;;;;;;25.20;45.80;96562.47;4206543;28;6197;-75
2023/06/12 08:19:05;;;;;;;;;;;;;;;25.19;45.33;96557.34;4207202;28;5698;-75
2023/06/12 08:21:09;;;;;;;;;;;;;;;25.20;45.67;96553.53;4206254;28;5694;-74
2023/06/12 08:23:12;;;;;;;;;;;;;;;25.22;45.89;96554.84;4196109;28;5718;-76
2023/06/12 08:25:15;;;;;;;;;;;;;;;25.23;45.75;96552.94;4204349;28;5709;-75
2023/06/12 08:27:18;;;;;;;;;;;;;;;25.20;45.32;96558.97;4202821;28;5693;-76
2023/06/12 08:29:21;;;;;;;;;;;;;;;25.18;45.55;96545.72;4196522;28;5687;-76
2023/06/12 08:31:24;;;;;;;;;;;;;;;25.18;45.89;96550.34;4202410;28;5801;-76
2023/06/12 08:33:29;;;;;;;;;;;;;;;25.18;45.72;96544.94;4194515;28;5861;-75
2023/06/12 08:35:34;;;;;;;;;;;;;;;25.20;45.90;96542.72;4199586;28;5690;-68
2023/06/12 08:37:37;;;;;;;;;;;;;;;25.20;45.66;96543.53;4199142;28;5895;-69
2023/06/12 08:39:40;;;;;;;;;;;;;;;25.22;45.69;96545.94;4199781;28;5840;-69
2023/06/12 08:41:54;;;;;;;;;;;;;;;25.25;45.67;96545.34;4197935;28;5690;-69
2023/06/12 08:44:00;;;;;;;;;;;;;;;25.24;45.82;96538.34;4199289;28;5714;-69
2023/06/12 08:46:04;;;;;;;;;;;;;;;25.26;45.83;96544.28;4200248;28;6506;-68
2023/06/12 08:48:09;;;;;;;;;;;;;;;25.27;46.05;96539.66;4199398;28;5840;-69
2023/06/12 08:50:13;;;;;;;;;;;;;;;25.27;45.91;96542.38;4186530;28;5706;-69
2023/06/12 08:52:19;;;;;;;;;;;;;;;25.24;45.79;96541.03;4198458;28;5702;-69
2023/06/12 08:54:23;;;;;;;;;;;;;;;25.20;45.96;96542.72;4200076;28;5876;-69
2023/06/12 08:56:26;;;;;;;;;;;;;;;25.18;46.40;96534.91;4200009;28;5771;-69
2023/06/12 08:58:29;;;;;;;;;;;;;;;25.19;46.03;96535.72;4199997;28;5913;-70
2023/06/12 09:00:32;;;;;;;;;;;;;;;25.20;46.09;96540.03;4198759;28;5705;-69
2023/06/12 09:02:35;;;;;;;;;;;;;;;25.19;46.22;96541.13;4201422;28;5683;-69
2023/06/12 09:04:45;;;;;;;;;;;;;;;25.20;46.55;96531.91;4208409;28;5694;-70
2023/06/12 09:06:52;;;;;;;;;;;;;;;25.21;46.43;96528.09;4199052;28;5682;-69
2023/06/12 09:08:55;;;;;;;;;;;;;;;25.22;46.38;96529.72;4200004;28;5691;-69
2023/06/12 09:10:59;;;;;;;;;;;;;;;25.23;46.51;96537.53;4197066;28;5798;-69
2023/06/12 09:13:07;;;;;;;;;;;;;;;25.23;46.23;96531.31;4200119;28;5839;-69
2023/06/12 09:15:16;;;;;;;;;;;;;;;25.25;46.58;96529.91;4190803;28;5854;-70
2023/06/12 09:17:19;;;;;;;;;;;;;;;25.24;46.55;96522.91;4200768;28;5870;-70
2023/06/12 09:19:22;;;;;;;;;;;;;;;25.29;46.60;96524.75;4206154;28;5673;-70
2023/06/12 09:21:26;;;;;;;;;;;;;;;25.28;46.89;96520.44;4199518;28;5769;-69
2023/06/12 09:23:36;;;;;;;;;;;;;;;25.29;46.88;96521.25;4197375;28;6506;-69
2023/06/12 09:25:40;;;;;;;;;;;;;;;25.30;46.86;96517.44;4203000;28;5796;-69
2023/06/12 09:27:44;;;;;;;;;;;;;;;25.29;46.70;96511.22;4202716;28;5878;-68
2023/06/12 09:29:47;;;;;;;;;;;;;;;25.26;47.12;96517.22;4201789;28;5717;-68
2023/06/12 09:31:51;;;;;;;;;;;;;;;25.29;46.72;96515.81;4198603;28;5881;-69
2023/06/12 09:33:57;;;;;;;;;;;;;;;25.29;46.65;96507.72;4202939;28;5682;-69
2023/06/12 09:36:00;;;;;;;;;;;;;;;25.22;47.01;96508.06;4202024;28;5714;-69
2023/06/12 09:38:04;;;;;;;;;;;;;;;25.23;47.05;96506.97;4201994;28;5785;-69
2023/06/12 09:40:11;;;;;;;;;;;;;;;25.25;46.97;96502.06;4201878;28;5693;-69
2023/06/12 09:42:17;;;;;;;;;;;;;;;25.29;46.77;96500.41;4193956;28;5712;-70
2023/06/12 09:44:22;;;;;;;;;;;;;;;25.34;46.51;96513.84;4202836;28;5753;-70
2023/06/12 09:46:28;;;;;;;;;;;;;;;25.34;46.55;96507.63;4203022;28;6541;-70
2023/06/12 09:48:35;;;;;;;;;;;;;;;25.36;46.88;96506.22;4215626;28;5694;-70
2023/06/12 09:50:39;;;;;;;;;;;;;;;25.38;46.63;96500.53;4199942;28;5698;-70
2023/06/12 09:52:43;;;;;;;;;;;;;;;25.37;46.63;96497.03;4200833;28;5838;-71
2023/06/12 09:54:47;;;;;;;;;;;;;;;25.38;46.85;96500.53;4203956;28;5798;-70
2023/06/12 09:56:54;;;;;;;;;;;;;;;25.36;46.80;96489.19;4201300;28;5631;-69
2023/06/12 09:58:59;;;;;;;;;;;;;;;25.40;46.79;96493.72;4202370;28;5706;-70
2023/06/12 10:01:05;;;;;;;;;;;;;;;25.41;46.83;96491.81;4200484;28;5788;-70
2023/06/12 10:03:13;;;;;;;;;;;;;;;25.41;46.87;96487.22;4202510;28;5757;-69
2023/06/12 10:05:20;;;;;;;;;;;;;;;25.41;47.12;96492.63;4201251;28;5758;-69
2023/06/12 10:07:28;;;;;;;;;;;;;;;25.42;46.98;96491.53;4208748;28;5665;-70
2023/06/12 10:09:32;;;;;;;;;;;;;;;25.46;46.99;96494.44;4202203;28;6399;-70
2023/06/12 10:11:36;;;;;;;;;;;;;;;25.45;47.00;96492.84;4186606;28;5802;-69
2023/06/12 10:13:41;;;;;;;;;;;;;;;25.41;47.02;96486.41;4198085;28;6363;-69
2023/06/12 10:15:45;;;;;;;;;;;;;;;25.37;47.20;96477.25;4201332;28;5686;-69
2023/06/12 10:17:51;;;;;;;;;;;;;;;25.39;47.28;96486.72;4201128;28;5682;-69
2023/06/12 10:19:55;;;;;;;;;;;;;;;25.42;47.37;96483.41;4200208;28;5694;-70
2023/06/12 10:21:59;;;;;;;;;;;;;;;25.47;47.27;96477.09;4193080;28;5855;-70
2023/06/12 10:24:03;;;;;;;;;;;;;;;25.49;46.81;96472.22;4192034;28;5686;-70
2023/06/12 10:26:07;;;;;;;;;;;;;;;25.50;46.77;96474.63;4200936;28;5761;-69
2023/06/12 10:28:11;;;;;;;;;;;;;;;25.48;46.80;96459.75;4184888;28;5715;-69
2023/06/12 10:30:17;;;;;;;;;;;;;;;25.51;47.11;96464.59;4199424;28;5701;-69
2023/06/12 10:32:21;;;;;;;;;;;;;;;25.51;47.17;96465.41;4201685;28;5793;-69
2023/06/12 10:34:24;;;;;;;;;;;;;;;25.54;46.67;96466.69;4201426;28;5705;-69
2023/06/12 10:36:41;;;;;;;;;;;;;;;25.53;46.78;96465.09;4201052;28;5848;-70
2023/06/12 10:38:48;;;;;;;;;;;;;;;25.53;46.47;96465.91;4199190;28;5730;-70
2023/06/12 10:40:51;;;;;;;;;;;;;;;25.53;46.84;96468.59;4201340;28;5694;-72
2023/06/12 10:43:02;;;;;;;;;;;;;;;25.55;46.62;96463.69;4201630;28;5693;-70
2023/06/12 10:45:17;;;;;;;;;;;;;;;25.56;46.66;96461.78;4202058;28;5687;-70
2023/06/12 10:47:21;;;;;;;;;;;;;;;25.55;46.60;96455.56;4200748;28;5852;-69
2023/06/12 10:49:24;;;;;;;;;;;;;;;25.57;46.44;96454.47;4200859;28;5784;-70
2023/06/12 10:51:34;;;;;;;;;;;;;;;25.61;46.51;96460.91;4200927;28;5714;-70
2023/06/12 10:53:36;;;;;;;;;;;;;;;25.61;46.23;96450.91;4197474;28;5682;-70
2023/06/12 10:55:40;;;;;;;;;;;;;;;25.64;46.28;96454.91;4193227;28;5871;-70
2023/06/12 10:57:49;;;;;;;;;;;;;;;25.64;46.32;96449.50;4201671;28;5706;-70
2023/06/12 10:59:57;;;;;;;;;;;;;;;25.64;46.28;96446.78;4200978;28;5933;-70
2023/06/12 11:02:01;;;;;;;;;;;;;;;25.66;46.16;96450.00;4186838;28;5739;-68
2023/06/12 11:04:05;;;;;;;;;;;;;;;25.68;46.47;96445.06;4200669;28;5841;-69
2023/06/12 11:06:15;;;;;;;;;;;;;;;25.70;46.00;96443.69;4196727;28;5735;-70
2023/06/12 11:08:20;;;;;;;;;;;;;;;25.71;46.11;96439.09;4201305;28;5706;-69
2023/06/12 11:10:23;;;;;;;;;;;;;;;25.72;46.13;96435.31;4200965;28;5717;-68
2023/06/12 11:12:26;;;;;;;;;;;;;;;25.73;46.28;96424.19;4201298;28;5834;-69
2023/06/12 11:14:40;;;;;;;;;;;;;;;25.76;46.18;96423.56;4201042;28;6261;-69
2023/06/12 11:16:45;;;;;;;;;;;;;;;25.79;46.25;96422.97;4200924;28;5927;-68
2023/06/12 11:19:03;;;;;;;;;;;;;;;25.81;46.03;96423.47;4199784;28;5690;-69
2023/06/12 11:21:07;;;;;;;;;;;;;;;25.82;46.18;96421.56;4199833;28;5761;-69
2023/06/12 11:23:10;;;;;;;;;;;;;;;25.86;46.57;96427.19;4200078;28;5821;-69
2023/06/12 11:25:15;;;;;;;;;;;;;;;25.88;46.64;96420.38;4203068;28;5816;-69
2023/06/12 11:27:19;;;;;;;;;;;;;;;25.90;46.12;96414.66;4200370;28;5698;-69
2023/06/12 11:29:25;;;;;;;;;;;;;;;25.92;46.44;96415.94;4197287;28;5694;-69
2023/06/12 11:31:29;;;;;;;;;;;;;;;25.94;46.10;96410.25;4199458;28;5773;-69
2023/06/12 11:33:33;;;;;;;;;;;;;;;25.94;45.99;96404.84;4200878;28;5678;-69
2023/06/12 11:35:41;;;;;;;;;;;;;;;25.96;46.25;96402.63;4201708;28;5781;-69
2023/06/12 11:37:45;;;;;;;;;;;;;;;26.00;46.29;96403.63;4199734;28;5690;-69
2023/06/12 11:39:59;;;;;;;;;;;;;;;26.02;45.93;96407.63;4197994;28;5821;-69
2023/06/12 11:42:03;;;;;;;;;;;;;;;26.05;46.08;96404.34;4195638;28;7008;-69
2023/06/12 11:44:06;;;;;;;;;;;;;;;26.05;46.08;96401.63;4186195;28;5920;-69
2023/06/12 11:46:09;;;;;;;;;;;;;;;26.06;45.80;96397.03;4192827;28;5761;-69
2023/06/12 11:48:14;;;;;;;;;;;;;;;26.07;46.01;96399.41;4192707;28;5683;-68
2023/06/12 11:50:21;;;;;;;;;;;;;;;26.10;45.72;96392.59;4184671;28;5794;-68
2023/06/12 11:52:26;;;;;;;;;;;;;;;26.11;45.89;96389.56;4189483;28;5694;-68
2023/06/12 11:54:29;;;;;;;;;;;;;;;26.12;45.61;96385.75;4191069;28;6099;-69
2023/06/12 11:56:35;;;;;;;;;;;;;;;26.13;45.36;96386.56;4185305;28;5854;-68
2023/06/12 11:58:44;;;;;;;;;;;;;;;26.14;45.45;96388.16;4194642;28;5830;-69
2023/06/12 12:00:49;;;;;;;;;;;;;;;26.17;45.34;96392.19;4186322;28;5860;-68
2023/06/12 12:02:53;;;;;;;;;;;;;;;26.19;45.42;96387.28;4189512;28;5698;-68
2023/06/12 12:04:57;;;;;;;;;;;;;;;26.20;45.17;96383.47;4190854;28;5826;-68
2023/06/12 12:07:02;;;;;;;;;;;;;;;26.24;44.96;96376.31;4190368;28;5812;-68
2023/06/12 12:09:06;;;;;;;;;;;;;;;26.30;44.94;96375.13;4188636;28;5727;-69
2023/06/12 12:11:18;;;;;;;;;;;;;;;26.34;44.85;96370.69;4186915;28;5888;-70
2023/06/12 12:13:23;;;;;;;;;;;;;;;26.38;44.57;96377.13;4191049;28;5921;-69
2023/06/12 12:15:28;;;;;;;;;;;;;;;26.40;44.31;96366.81;4196501;28;6404;-69
2023/06/12 12:17:33;;;;;;;;;;;;;;;26.42;44.12;96361.06;4185221;28;5807;-70
2023/06/12 12:19:36;;;;;;;;;;;;;;;26.45;44.23;96360.44;4188276;28;5784;-70
2023/06/12 12:21:40;;;;;;;;;;;;;;;26.47;43.91;96345.47;4192783;28;7718;-69
2023/06/12 12:23:43;;;;;;;;;;;;;;;26.48;44.07;96355.22;4186735;28;5886;-69
2023/06/12 12:25:48;;;;;;;;;;;;;;;26.47;44.00;96352.81;4189844;28;5892;-69
2023/06/12 12:27:53;;;;;;;;;;;;;;;26.48;43.86;96355.22;4191981;28;5727;-69
2023/06/12 12:29:56;;;;;;;;;;;;;;;26.47;43.60;96348.19;4190322;28;5776;-69
2023/06/12 12:32:02;;;;;;;;;;;;;;;26.48;43.61;96344.38;4189929;28;5918;-69
2023/06/12 12:34:05;;;;;;;;;;;;;;;26.49;43.51;96350.59;4191237;28;5937;-69
2023/06/12 12:36:09;;;;;;;;;;;;;;;26.52;43.23;96350.00;4183471;28;5904;-69
2023/06/12 12:38:12;;;;;;;;;;;;;;;26.54;43.28;96343.16;4187531;28;5786;-69
2023/06/12 12:40:16;;;;;;;;;;;;;;;26.56;42.84;96332.81;4195528;28;5841;-69
2023/06/12 12:42:21;;;;;;;;;;;;;;;26.56;42.98;96329.31;4190108;28;5888;-69
2023/06/12 12:44:24;;;;;;;;;;;;;;;26.57;42.74;96334.41;4195152;28;5686;-69
2023/06/12 12:46:27;;;;;;;;;;;;;;;26.57;42.56;96328.19;4198308;28;5673;-69
2023/06/12 12:48:30;;;;;;;;;;;;;;;26.58;42.60;96335.22;4191252;28;5710;-69
2023/06/12 12:50:33;;;;;;;;;;;;;;;26.57;42.37;96326.28;4195307;28;5082;-69
2023/06/12 12:52:49;;;;;;;;;;;;;;;26.60;42.18;96316.72;4197946;28;5750;-69
2023/06/12 12:54:53;;;;;;;;;;;;;;;26.62;41.82;96322.66;4193882;28;5506;-69
2023/06/12 12:56:58;;;;;;;;;;;;;;;26.64;41.86;96331.28;4192355;28;5777;-69
2023/06/12 12:59:02;;;;;;;;;;;;;;;26.64;41.81;96326.66;4191398;28;5757;-68
2023/06/12 13:01:05;;;;;;;;;;;;;;;26.66;41.91;96313.59;4193777;28;6012;-68
2023/06/12 13:03:08;;;;;;;;;;;;;;;26.69;41.63;96318.41;4193482;28;5890;-69
2023/06/12 13:05:13;;;;;;;;;;;;;;;26.69;41.81;96312.19;4190735;28;5781;-68
2023/06/12 13:07:16;;;;;;;;;;;;;;;26.70;41.81;96308.34;4195641;28;5824;-68
2023/06/12 13:09:19;;;;;;;;;;;;;;;26.74;41.76;96314.78;4202952;28;5672;-68
2023/06/12 13:11:22;;;;;;;;;;;;;;;26.79;41.49;96311.94;4192091;28;7769;-68
2023/06/12 13:13:25;;;;;;;;;;;;;;;26.80;41.39;96308.09;4193449;28;5757;-68
2023/06/12 13:15:29;;;;;;;;;;;;;;;26.82;41.40;96311.31;4193095;28;5197;-68
2023/06/12 13:17:32;;;;;;;;;;;;;;;26.82;41.38;96305.88;4188889;28;5853;-68
2023/06/12 13:19:35;;;;;;;;;;;;;;;26.81;41.48;96298.06;4191457;28;5777;-68
2023/06/12 13:21:39;;;;;;;;;;;;;;;26.79;41.01;96294.88;4192729;28;5718;-68
2023/06/12 13:23:42;;;;;;;;;;;;;;;26.83;40.78;96290.41;4201005;28;6517;-69
2023/06/12 13:25:46;;;;;;;;;;;;;;;26.84;41.05;96292.00;4193867;28;6474;-69
2023/06/12 13:27:49;;;;;;;;;;;;;;;26.87;40.71;96292.22;4191363;28;5735;-69
2023/06/12 13:29:52;;;;;;;;;;;;;;;26.89;40.29;96283.75;4194479;28;5702;-69
2023/06/12 13:31:56;;;;;;;;;;;;;;;26.88;40.08;96276.75;4195953;28;5795;-67
2023/06/12 13:34:00;;;;;;;;;;;;;;;26.92;39.92;96278.50;4198601;28;5952;-70
2023/06/12 13:36:03;;;;;;;;;;;;;;;26.98;39.32;96276.50;4199979;28;5766;-70
2023/06/12 13:38:07;;;;;;;;;;;;;;;27.01;39.17;96281.28;4200881;28;6495;-69
2023/06/12 13:40:12;;;;;;;;;;;;;;;27.05;38.92;96274.16;4196383;28;5762;-69
2023/06/12 13:42:16;;;;;;;;;;;;;;;27.10;38.55;96274.03;4201154;28;5778;-69
2023/06/12 13:44:20;;;;;;;;;;;;;;;27.13;38.27;96269.88;4198964;28;5694;-69
2023/06/12 13:46:23;;;;;;;;;;;;;;;27.14;38.21;96277.72;4195170;28;5755;-69
2023/06/12 13:48:28;;;;;;;;;;;;;;;27.17;38.04;96268.13;4197750;28;5871;-69
2023/06/12 13:50:31;;;;;;;;;;;;;;;27.22;37.68;96266.09;4198632;28;5690;-69
2023/06/12 13:52:34;;;;;;;;;;;;;;;27.24;37.23;96272.00;4195072;28;7699;-69
2023/06/12 13:54:37;;;;;;;;;;;;;;;27.38;36.52;96281.97;4187768;28;5843;-69
2023/06/12 13:56:40;;;;;;;;;;;;;;;27.43;36.31;96276.41;4188590;28;6681;-69
2023/06/12 13:58:43;;;;;;;;;;;;;;;27.43;36.46;96271.00;4188761;28;5690;-68
2023/06/12 14:00:46;;;;;;;;;;;;;;;27.46;36.53;96271.16;4197834;28;5697;-69
2023/06/12 14:02:51;;;;;;;;;;;;;;;27.48;36.13;96262.69;4198434;28;5745;-68
2023/06/12 14:04:57;;;;;;;;;;;;;;;27.58;35.87;96265.13;4192427;28;6681;-69
2023/06/12 14:07:01;;;;;;;;;;;;;;;27.63;35.67;96256.81;4187926;28;5108;-68
2023/06/12 14:09:04;;;;;;;;;;;;;;;27.66;35.44;96258.94;4196463;28;5863;-68
2023/06/12 14:11:07;;;;;;;;;;;;;;;27.68;35.28;96256.72;4193199;28;5705;-69
2023/06/12 14:13:10;;;;;;;;;;;;;;;27.67;35.18;96255.13;4198891;28;5912;-69
2023/06/12 14:15:13;;;;;;;;;;;;;;;27.73;34.92;96253.84;4200851;28;5082;-69
2023/06/12 14:17:16;;;;;;;;;;;;;;;27.74;34.97;96249.22;4197953;28;5860;-69
2023/06/12 14:19:19;;;;;;;;;;;;;;;27.74;34.77;96254.63;4199567;28;6011;-67
2023/06/12 14:21:24;;;;;;;;;;;;;;;27.80;34.62;96256.91;4200867;28;7691;-68
2023/06/12 14:23:27;;;;;;;;;;;;;;;27.78;34.48;96255.63;4197249;28;5685;-67
2023/06/12 14:25:33;;;;;;;;;;;;;;;27.82;34.28;96243.81;4194473;28;5781;-67
2023/06/12 14:27:36;;;;;;;;;;;;;;;27.83;34.11;96239.97;4196582;28;5917;-67
2023/06/12 14:29:39;;;;;;;;;;;;;;;27.87;34.09;96242.06;4195282;28;5705;-67
2023/06/12 14:31:42;;;;;;;;;;;;;;;27.92;33.90;96241.91;4196997;28;5900;-68
2023/06/12 14:33:45;;;;;;;;;;;;;;;27.94;33.87;96245.09;4199018;28;5882;-68
2023/06/12 14:35:48;;;;;;;;;;;;;;;27.96;33.66;96245.56;4194891;28;5674;-68
2023/06/12 14:37:53;;;;;;;;;;;;;;;27.96;33.72;96235.50;4195898;28;5804;-68
2023/06/12 14:39:55;;;;;;;;;;;;;;;28.00;33.50;96241.13;4197612;28;5075;-68
2023/06/12 14:41:59;;;;;;;;;;;;;;;27.99;33.36;96229.47;4196078;28;5769;-69
2023/06/12 14:44:02;;;;;;;;;;;;;;;27.96;33.39;96235.50;4194143;28;5891;-68
2023/06/12 14:46:05;;;;;;;;;;;;;;;28.00;33.17;96239.22;4200181;28;5828;-68
2023/06/12 14:48:08;;;;;;;;;;;;;;;28.05;32.92;96224.66;4198358;28;5858;-68
2023/06/12 14:50:11;;;;;;;;;;;;;;;28.08;32.92;96229.44;4192087;28;5826;-68
2023/06/12 14:52:14;;;;;;;;;;;;;;;28.10;32.94;96230.75;4202468;28;5682;-67
2023/06/12 14:54:36;;;;;;;;;;;;;;;28.13;32.77;96218.44;4199948;28;5729;-68
2023/06/12 14:56:39;;;;;;;;;;;;;;;28.10;32.84;96225.31;4200209;28;5691;-67
2023/06/12 14:58:42;;;;;;;;;;;;;;;28.06;32.90;96220.81;4198044;28;5114;-66
2023/06/12 15:00:48;;;;;;;;;;;;;;;28.05;32.85;96219.22;4191849;28;5772;-67
2023/06/12 15:02:51;;;;;;;;;;;;;;;28.11;32.44;96207.88;4195937;28;6026;-67
2023/06/12 15:04:54;;;;;;;;;;;;;;;28.13;32.33;96210.28;4192112;28;5706;-67
2023/06/12 15:06:57;;;;;;;;;;;;;;;28.19;32.04;96203.56;4191985;28;5699;-67
2023/06/12 15:09:00;;;;;;;;;;;;;;;28.23;31.94;96203.72;4194624;28;6009;-67
2023/06/12 15:11:05;;;;;;;;;;;;;;;28.22;31.96;96211.09;4191290;28;5785;-68
2023/06/12 15:13:08;;;;;;;;;;;;;;;28.23;31.84;96201.81;4195279;28;5921;-66
2023/06/12 15:15:12;;;;;;;;;;;;;;;28.21;32.02;96205.97;4190800;28;5853;-67
2023/06/12 15:17:16;;;;;;;;;;;;;;;28.22;31.56;96202.94;4190731;28;5719;-67
2023/06/12 15:19:19;;;;;;;;;;;;;;;28.19;31.68;96198.13;4186717;28;6634;-68
2023/06/12 15:21:22;;;;;;;;;;;;;;;28.19;31.62;96200.84;4197808;28;5765;-68
2023/06/12 15:23:25;;;;;;;;;;;;;;;28.18;31.68;96204.69;4195075;28;5815;-68
2023/06/12 15:25:28;;;;;;;;;;;;;;;28.15;31.57;96199.88;4188276;28;5908;-68
2023/06/12 15:27:32;;;;;;;;;;;;;;;28.13;31.49;96202.94;4192834;28;5897;-68
2023/06/12 15:29:36;;;;;;;;;;;;;;;28.15;31.40;96197.16;4196383;28;5796;-67
2023/06/12 15:31:39;;;;;;;;;;;;;;;28.18;31.33;96199.25;4191276;28;5690;-68
2023/06/12 15:33:42;;;;;;;;;;;;;;;28.22;31.16;96200.22;4190070;28;5166;-68
2023/06/12 15:35:45;;;;;;;;;;;;;;;28.26;31.32;96200.38;4197619;28;5893;-68
2023/06/12 15:37:48;;;;;;;;;;;;;;;28.24;31.22;96197.97;4196319;28;5773;-67